createdAt,value
2022-12-05T00:01:26.873Z,2.91
2022-12-05T00:03:57.274Z,2.94
2022-12-05T00:06:28.697Z,3.05
2022-12-05T00:08:57.465Z,3.25
2022-12-05T00:11:27.541Z,3.42
2022-12-05T00:13:56.668Z,3.17
2022-12-05T00:16:27.623Z,3.20
2022-12-05T00:18:56.039Z,3.13
2022-12-05T00:21:26.960Z,3.31
2022-12-05T00:23:56.656Z,3.17
2022-12-05T00:26:25.288Z,2.92
2022-12-05T00:28:54.257Z,3.10
2022-12-05T00:31:24.238Z,2.97
2022-12-05T00:33:52.944Z,2.86
2022-12-05T00:36:23.028Z,3.01
2022-12-05T00:38:52.970Z,3.15
2022-12-05T00:41:22.933Z,2.97
2022-12-05T00:43:51.359Z,3.07
2022-12-05T00:46:21.385Z,3.17
2022-12-05T00:48:49.654Z,3.03
2022-12-05T00:51:19.724Z,3.09
2022-12-05T00:53:48.765Z,3.12
2022-12-05T00:56:22.064Z,3.31
2022-12-05T00:58:51.106Z,3.27
2022-12-05T01:01:22.150Z,3.30
2022-12-05T01:03:52.592Z,3.12
2022-12-05T01:06:20.849Z,3.15
2022-12-05T01:08:48.941Z,3.10
2022-12-05T01:11:20.225Z,3.15
2022-12-05T01:13:48.678Z,3.23
2022-12-05T01:16:17.453Z,3.03
2022-12-05T01:18:45.544Z,3.05
2022-12-05T01:21:13.980Z,2.93
2022-12-05T01:23:41.889Z,3.11
2022-12-05T01:26:12.780Z,3.07
2022-12-05T01:28:43.071Z,3.00
2022-12-05T01:31:17.966Z,3.12
2022-12-05T01:33:46.017Z,3.17
2022-12-05T01:36:13.975Z,3.09
2022-12-05T01:38:43.340Z,3.04
2022-12-05T01:41:15.211Z,3.14
2022-12-05T01:43:59.982Z,3.13
2022-12-05T01:46:30.341Z,3.30
2022-12-05T01:49:02.597Z,3.29
2022-12-05T01:51:31.794Z,3.19
2022-12-05T01:54:00.425Z,3.49
2022-12-05T01:56:28.478Z,3.32
2022-12-05T01:58:58.066Z,3.46
2022-12-05T02:01:26.105Z,3.42
2022-12-05T02:03:57.400Z,3.31
2022-12-05T02:06:27.945Z,3.39
2022-12-05T02:08:55.767Z,3.32
2022-12-05T02:11:26.041Z,3.23
2022-12-05T02:14:19.755Z,3.16
2022-12-05T02:16:59.076Z,3.34
2022-12-05T02:20:04.934Z,3.37
2022-12-05T02:22:59.653Z,3.30
2022-12-05T02:25:51.685Z,3.32
2022-12-05T02:28:40.230Z,3.43
2022-12-05T02:31:13.598Z,3.42
2022-12-05T02:33:48.766Z,3.35
2022-12-05T02:36:23.154Z,3.40
2022-12-05T02:38:57.813Z,2.92
2022-12-05T02:41:29.500Z,3.19
2022-12-05T02:44:01.391Z,3.16
2022-12-05T02:46:33.367Z,3.20
2022-12-05T02:49:05.325Z,3.02
2022-12-05T02:51:37.148Z,3.04
2022-12-05T02:54:10.021Z,3.10
2022-12-05T02:56:39.855Z,3.30
2022-12-05T02:59:07.787Z,3.51
2022-12-05T03:01:37.252Z,3.32
2022-12-05T03:04:07.989Z,3.31
2022-12-05T03:06:41.208Z,3.34
2022-12-05T03:09:14.553Z,3.44
2022-12-05T03:11:48.093Z,3.40
2022-12-05T03:14:22.432Z,3.48
2022-12-05T03:16:54.367Z,3.36
2022-12-05T03:19:28.013Z,3.39
2022-12-05T03:22:01.479Z,3.37
2022-12-05T03:24:29.983Z,3.42
2022-12-05T03:27:07.882Z,3.44
2022-12-05T03:29:40.397Z,3.35
2022-12-05T03:32:16.762Z,3.46
2022-12-05T03:34:54.024Z,3.07
2022-12-05T03:37:31.624Z,3.16
2022-12-05T03:40:07.544Z,3.06
2022-12-05T03:42:41.548Z,3.27
2022-12-05T03:45:13.662Z,3.15
2022-12-05T03:47:51.666Z,3.25
2022-12-05T03:50:23.874Z,3.31
2022-12-05T03:53:19.242Z,3.10
2022-12-05T03:55:48.405Z,3.32
2022-12-05T03:58:21.806Z,3.17
2022-12-05T04:00:52.312Z,3.31
2022-12-05T04:03:28.201Z,3.21
2022-12-05T04:06:00.337Z,3.31
2022-12-05T04:08:33.086Z,3.43
2022-12-05T04:11:06.154Z,3.25
2022-12-05T04:13:38.876Z,3.42
2022-12-05T04:16:30.306Z,3.18
2022-12-05T04:19:04.403Z,3.17
2022-12-05T04:21:40.898Z,3.07
2022-12-05T04:24:29.809Z,3.24
2022-12-05T04:27:10.303Z,3.45
2022-12-05T04:29:46.274Z,3.43
2022-12-05T04:32:15.538Z,3.19
2022-12-05T04:34:51.864Z,3.18
2022-12-05T04:37:26.225Z,3.40
2022-12-05T04:40:00.036Z,3.01
2022-12-05T04:42:31.214Z,3.19
2022-12-05T04:45:04.588Z,3.17
2022-12-05T04:47:37.151Z,3.18
2022-12-05T04:50:11.296Z,3.19
2022-12-05T04:52:40.799Z,3.26
2022-12-05T04:55:13.416Z,3.35
2022-12-05T04:57:46.389Z,3.42
2022-12-05T05:00:14.903Z,3.47
2022-12-05T05:02:47.950Z,3.42
2022-12-05T05:05:19.858Z,3.41
2022-12-05T05:07:49.597Z,3.16
2022-12-05T05:10:21.012Z,3.25
2022-12-05T05:12:48.915Z,3.38
2022-12-05T05:15:17.068Z,3.39
2022-12-05T05:17:45.232Z,3.16
2022-12-05T05:20:25.608Z,3.32
2022-12-05T05:22:55.941Z,3.39
2022-12-05T05:25:23.977Z,3.45
2022-12-05T05:27:53.089Z,3.35
2022-12-05T05:30:22.102Z,3.21
2022-12-05T05:32:50.176Z,3.27
2022-12-05T05:35:18.153Z,3.19
2022-12-05T05:37:45.987Z,3.31
2022-12-05T05:40:15.719Z,3.30
2022-12-05T05:42:44.714Z,3.35
2022-12-05T05:45:14.881Z,3.24
2022-12-05T05:47:43.315Z,3.26
2022-12-05T05:50:17.927Z,3.27
2022-12-05T05:52:49.037Z,3.23
2022-12-05T05:55:18.699Z,3.38
2022-12-05T05:57:46.552Z,3.35
2022-12-05T06:00:15.801Z,3.33
2022-12-05T06:02:43.741Z,3.37
2022-12-05T06:05:11.869Z,3.41
2022-12-05T06:07:39.823Z,3.32
2022-12-05T06:10:08.855Z,3.37
2022-12-05T06:12:38.196Z,3.25
2022-12-05T06:15:07.331Z,3.24
2022-12-05T06:17:35.193Z,3.35
2022-12-05T06:20:03.370Z,3.50
2022-12-05T06:22:31.617Z,3.29
2022-12-05T06:24:59.872Z,3.32
2022-12-05T06:27:31.327Z,3.38
2022-12-05T06:30:01.091Z,3.47
2022-12-05T06:32:29.865Z,3.28
2022-12-05T06:34:57.922Z,3.38
2022-12-05T06:37:25.901Z,3.32
2022-12-05T06:39:53.749Z,3.17
2022-12-05T06:42:22.388Z,3.26
2022-12-05T06:44:50.391Z,3.21
2022-12-05T06:47:19.895Z,3.35
2022-12-05T06:49:47.795Z,3.28
2022-12-05T06:52:15.952Z,3.24
2022-12-05T06:54:43.785Z,3.21
2022-12-05T06:57:11.627Z,3.26
2022-12-05T06:59:39.574Z,3.32
2022-12-05T07:02:08.379Z,3.27
2022-12-05T07:04:37.861Z,3.22
2022-12-05T07:07:06.219Z,3.12
2022-12-05T07:09:52.330Z,3.22
2022-12-05T07:12:20.813Z,3.24
2022-12-05T07:14:49.886Z,3.35
2022-12-05T07:17:18.782Z,3.30
2022-12-05T07:19:50.624Z,3.20
2022-12-05T07:22:18.981Z,3.18
2022-12-05T07:24:47.369Z,3.20
2022-12-05T07:27:18.464Z,3.17
2022-12-05T07:29:48.516Z,3.27
2022-12-05T07:32:16.555Z,3.24
2022-12-05T07:34:44.402Z,3.10
2022-12-05T07:37:14.155Z,3.20
2022-12-05T07:39:42.175Z,3.25
2022-12-05T07:42:10.296Z,3.27
2022-12-05T07:44:38.366Z,3.24
2022-12-05T07:47:06.658Z,3.21
2022-12-05T07:49:34.711Z,3.15
2022-12-05T07:52:03.183Z,3.17
2022-12-05T07:54:32.642Z,3.13
2022-12-05T07:57:00.568Z,3.21
2022-12-05T07:59:28.629Z,3.02
2022-12-05T08:01:56.870Z,3.01
2022-12-05T08:04:25.531Z,3.08
2022-12-05T08:06:53.483Z,3.18
2022-12-05T08:09:21.495Z,2.91
2022-12-05T08:11:52.763Z,2.93
2022-12-05T08:14:21.645Z,2.93
2022-12-05T08:16:49.843Z,2.93
2022-12-05T08:19:17.913Z,2.93
2022-12-05T08:21:45.878Z,2.86
2022-12-05T08:24:14.273Z,2.95
2022-12-05T08:26:42.344Z,2.83
2022-12-05T08:29:13.733Z,2.79
2022-12-05T08:31:47.165Z,2.81
2022-12-05T08:34:16.078Z,2.91
2022-12-05T08:36:44.081Z,2.75
2022-12-05T08:39:15.898Z,2.78
2022-12-05T08:41:44.752Z,2.76
2022-12-05T08:44:16.992Z,2.89
2022-12-05T08:46:47.482Z,2.83
2022-12-05T08:49:15.938Z,2.64
2022-12-05T08:51:44.823Z,2.69
2022-12-05T08:54:13.206Z,2.73
2022-12-05T08:56:41.243Z,2.74
2022-12-05T08:59:09.430Z,2.64
2022-12-05T09:01:39.453Z,2.78
2022-12-05T09:04:08.944Z,2.73
2022-12-05T09:06:39.287Z,2.87
2022-12-05T09:09:09.367Z,2.72
2022-12-05T09:11:40.717Z,2.87
2022-12-05T09:14:08.858Z,2.92
2022-12-05T09:16:39.804Z,2.71
2022-12-05T09:19:13.272Z,2.76
2022-12-05T09:21:41.587Z,2.79
2022-12-05T09:24:10.974Z,2.75
2022-12-05T09:26:40.817Z,2.71
2022-12-05T09:29:14.155Z,2.57
2022-12-05T09:31:46.327Z,2.65
2022-12-05T09:34:15.403Z,2.68
2022-12-05T09:36:44.126Z,2.68
2022-12-05T09:39:12.441Z,2.64
2022-12-05T09:42:13.212Z,2.78
2022-12-05T09:44:47.090Z,2.71
2022-12-05T09:47:29.252Z,2.69
2022-12-05T09:50:02.514Z,2.71
2022-12-05T09:52:32.762Z,2.67
2022-12-05T09:55:06.613Z,2.67
2022-12-05T09:57:39.481Z,2.78
2022-12-05T10:00:09.056Z,2.75
2022-12-05T10:02:47.257Z,2.74
2022-12-05T10:05:24.072Z,2.77
2022-12-05T10:07:59.453Z,2.84
2022-12-05T10:10:35.855Z,2.79
2022-12-05T10:13:28.305Z,2.82
2022-12-05T10:15:59.417Z,2.90
2022-12-05T10:18:38.433Z,2.91
2022-12-05T10:21:16.778Z,2.97
2022-12-05T10:23:58.268Z,2.90
2022-12-05T10:26:31.447Z,2.90
2022-12-05T10:29:08.952Z,2.86
2022-12-05T10:31:39.665Z,3.00
2022-12-05T10:34:16.252Z,2.82
2022-12-05T10:36:54.563Z,2.98
2022-12-05T10:39:22.796Z,2.97
2022-12-05T10:41:52.016Z,3.04
2022-12-05T10:44:19.950Z,2.92
2022-12-05T10:46:48.061Z,2.87
2022-12-05T10:49:17.868Z,2.88
2022-12-05T10:51:46.168Z,2.91
2022-12-05T10:54:19.460Z,2.76
2022-12-05T10:56:48.880Z,2.81
2022-12-05T10:59:19.263Z,2.70
2022-12-05T11:01:52.304Z,2.80
2022-12-05T11:04:42.498Z,2.82
2022-12-05T11:07:26.133Z,2.83
2022-12-05T11:09:54.689Z,2.92
2022-12-05T11:12:25.997Z,2.91
2022-12-05T11:15:01.201Z,2.85
2022-12-05T11:17:33.146Z,2.80
2022-12-05T11:20:02.954Z,2.72
2022-12-05T11:22:33.609Z,2.79
2022-12-05T11:25:01.703Z,2.69
2022-12-05T11:27:31.581Z,2.72
2022-12-05T11:30:02.574Z,2.79
2022-12-05T11:32:33.210Z,2.78
2022-12-05T11:35:12.912Z,2.69
2022-12-05T11:37:45.990Z,2.81
2022-12-05T11:40:17.517Z,2.63
2022-12-05T11:43:14.633Z,2.81
2022-12-05T11:45:54.412Z,2.76
2022-12-05T11:48:47.570Z,2.79
2022-12-05T11:51:30.089Z,2.77
2022-12-05T11:54:42.106Z,2.80
2022-12-05T11:57:26.132Z,2.76
2022-12-05T12:00:09.101Z,2.71
2022-12-05T12:03:02.874Z,2.84
2022-12-05T12:05:38.773Z,2.63
2022-12-05T12:08:22.437Z,2.67
2022-12-05T12:11:03.649Z,2.66
2022-12-05T12:13:52.576Z,2.64
2022-12-05T12:16:31.129Z,2.68
2022-12-05T12:19:22.355Z,2.69
2022-12-05T12:22:05.518Z,2.70
2022-12-05T12:24:50.157Z,2.66
2022-12-05T12:27:34.716Z,2.70
2022-12-05T12:30:07.944Z,2.60
2022-12-05T12:32:44.800Z,2.48
2022-12-05T12:35:30.184Z,2.70
2022-12-05T12:38:18.419Z,2.78
2022-12-05T12:40:51.566Z,2.58
2022-12-05T12:46:35.324Z,2.47
2022-12-05T12:49:26.146Z,2.37
2022-12-05T12:51:55.977Z,2.53
2022-12-05T12:55:06.505Z,2.38
2022-12-05T12:57:50.696Z,2.75
2022-12-05T13:00:24.868Z,2.45
2022-12-05T13:02:58.199Z,2.57
2022-12-05T13:05:34.491Z,2.43
2022-12-05T13:08:07.772Z,2.35
2022-12-05T13:10:40.835Z,2.49
2022-12-05T13:13:15.026Z,2.43
2022-12-05T13:15:47.824Z,2.39
2022-12-05T13:18:19.447Z,2.40
2022-12-05T13:20:50.570Z,2.46
2022-12-05T13:23:22.510Z,2.30
2022-12-05T13:25:52.477Z,2.41
2022-12-05T13:28:28.659Z,2.27
2022-12-05T13:31:02.773Z,2.48
2022-12-05T13:33:35.166Z,2.37
2022-12-05T13:36:27.885Z,2.43
2022-12-05T13:39:22.882Z,2.33
2022-12-05T13:42:11.649Z,2.44
2022-12-05T13:44:44.819Z,2.33
2022-12-05T13:47:29.013Z,2.50
2022-12-05T13:50:02.489Z,2.35
2022-12-05T13:52:33.475Z,2.34
2022-12-05T13:55:06.607Z,2.41
2022-12-05T13:57:55.725Z,2.38
2022-12-05T14:00:43.346Z,2.33
2022-12-05T14:03:19.607Z,2.36
2022-12-05T14:05:50.004Z,2.22
2022-12-05T14:08:57.072Z,2.25
2022-12-05T14:11:25.043Z,2.15
2022-12-05T14:13:53.735Z,2.22
2022-12-05T14:16:50.756Z,2.12
2022-12-05T14:19:53.292Z,2.07
2022-12-05T14:22:38.492Z,2.04
2022-12-05T14:25:15.109Z,2.05
2022-12-05T14:27:57.096Z,1.88
2022-12-05T14:30:31.216Z,1.90
2022-12-05T14:33:02.898Z,1.86
2022-12-05T14:35:33.149Z,1.94
2022-12-05T14:38:04.072Z,1.89
2022-12-05T14:40:34.976Z,1.74
2022-12-05T14:43:06.014Z,1.85
2022-12-05T14:45:39.940Z,1.58
2022-12-05T14:48:31.879Z,1.70
2022-12-05T14:51:00.877Z,1.68
2022-12-05T14:53:36.767Z,1.65
2022-12-05T14:56:13.714Z,1.71
2022-12-05T14:58:48.365Z,1.71
2022-12-05T15:01:20.781Z,1.62
2022-12-05T15:04:17.626Z,1.62
2022-12-05T15:06:49.819Z,1.57
2022-12-05T15:09:38.929Z,1.67
2022-12-05T15:12:13.668Z,1.65
2022-12-05T15:14:49.010Z,1.57
2022-12-05T15:17:24.499Z,1.48
2022-12-05T15:20:03.705Z,1.51
2022-12-05T15:22:35.692Z,1.51
2022-12-05T15:25:16.890Z,1.51
2022-12-05T15:27:54.465Z,1.51
2022-12-05T15:30:22.440Z,1.49
2022-12-05T15:32:52.755Z,1.49
2022-12-05T15:35:28.038Z,1.56
2022-12-05T15:37:59.854Z,1.52
2022-12-05T15:40:37.125Z,1.53
2022-12-05T15:43:28.739Z,1.51
2022-12-05T15:46:25.067Z,1.45
2022-12-05T15:48:53.688Z,1.33
2022-12-05T15:51:28.359Z,1.46
2022-12-05T15:54:01.954Z,1.51
2022-12-05T15:56:33.832Z,1.36
2022-12-05T15:59:06.050Z,1.46
2022-12-05T16:01:42.254Z,1.37
2022-12-05T16:04:22.579Z,1.43
2022-12-05T16:06:56.477Z,1.47
2022-12-05T16:09:27.232Z,1.54
2022-12-05T16:11:57.298Z,1.43
2022-12-05T16:14:58.515Z,1.39
2022-12-05T16:17:21.574Z,1.48
2022-12-05T16:19:50.052Z,1.76
2022-12-05T16:22:24.082Z,1.49
2022-12-05T16:24:57.340Z,1.55
2022-12-05T16:27:27.391Z,1.48
2022-12-05T16:30:20.177Z,1.60
2022-12-05T16:32:50.079Z,1.51
2022-12-05T16:35:33.899Z,1.40
2022-12-05T16:38:20.917Z,1.43
2022-12-05T16:40:58.091Z,1.31
2022-12-05T16:43:43.865Z,1.37
2022-12-05T16:46:43.962Z,1.39
2022-12-05T16:49:19.341Z,1.30
2022-12-05T16:51:56.323Z,1.40
2022-12-05T16:54:25.687Z,1.48
2022-12-05T16:56:53.618Z,1.63
2022-12-05T16:59:26.715Z,1.48
2022-12-05T17:01:54.683Z,1.45
2022-12-05T17:04:22.765Z,1.34
2022-12-05T17:06:50.774Z,1.45
2022-12-05T17:09:18.719Z,1.42
2022-12-05T17:11:50.533Z,1.39
2022-12-05T17:14:19.900Z,1.45
2022-12-05T17:16:47.953Z,1.47
2022-12-05T17:19:16.524Z,1.37
2022-12-05T17:21:45.048Z,1.48
2022-12-05T17:24:17.346Z,1.51
2022-12-05T17:26:47.447Z,1.46
2022-12-05T17:29:15.453Z,1.33
2022-12-05T17:31:43.377Z,1.29
2022-12-05T17:34:17.584Z,1.41
2022-12-05T17:36:46.109Z,1.45
2022-12-05T17:39:14.455Z,1.32
2022-12-05T17:41:42.334Z,1.34
2022-12-05T17:44:15.084Z,1.48
2022-12-05T17:46:43.549Z,1.51
2022-12-05T17:49:14.112Z,1.56
2022-12-05T17:52:05.462Z,1.61
2022-12-05T17:54:30.497Z,1.48
2022-12-05T17:56:58.640Z,1.63
2022-12-05T17:59:28.453Z,1.72
2022-12-05T18:01:56.450Z,1.59
2022-12-05T18:04:24.361Z,1.57
2022-12-05T18:06:52.128Z,1.56
2022-12-05T18:09:20.137Z,1.56
2022-12-05T18:11:48.079Z,1.56
2022-12-05T18:14:16.375Z,1.60
2022-12-05T18:16:45.811Z,1.54
2022-12-05T18:19:13.775Z,1.58
2022-12-05T18:21:41.666Z,1.68
2022-12-05T18:24:09.589Z,1.58
2022-12-05T18:26:37.517Z,1.59
2022-12-05T18:29:05.602Z,1.57
2022-12-05T18:31:33.705Z,1.69
2022-12-05T18:34:03.002Z,1.64
2022-12-05T18:36:30.896Z,1.70
2022-12-05T18:38:59.260Z,1.70
2022-12-05T18:41:27.587Z,1.62
2022-12-05T18:43:55.704Z,1.70
2022-12-05T18:46:23.653Z,1.64
2022-12-05T18:48:52.022Z,1.61
2022-12-05T18:51:23.345Z,1.71
2022-12-05T18:53:53.558Z,1.64
2022-12-05T18:56:25.791Z,1.69
2022-12-05T18:58:55.707Z,1.75
2022-12-05T19:01:24.398Z,1.67
2022-12-05T19:03:53.058Z,1.68
2022-12-05T19:06:24.593Z,1.52
2022-12-05T19:08:54.694Z,1.49
2022-12-05T19:11:23.098Z,1.66
2022-12-05T19:13:51.141Z,1.77
2022-12-05T19:16:19.271Z,1.69
2022-12-05T19:18:47.726Z,1.68
2022-12-05T19:21:15.695Z,1.65
2022-12-05T19:23:45.055Z,1.69
2022-12-05T19:26:13.049Z,1.76
2022-12-05T19:28:41.119Z,1.82
2022-12-05T19:31:10.738Z,1.71
2022-12-05T19:33:40.555Z,1.83
2022-12-05T19:36:11.574Z,1.64
2022-12-05T19:38:40.769Z,1.78
2022-12-05T19:41:12.651Z,1.64
2022-12-05T19:43:40.940Z,1.62
2022-12-05T19:46:11.771Z,1.66
2022-12-05T19:48:40.286Z,1.75
2022-12-05T19:51:08.886Z,1.68
2022-12-05T19:53:39.007Z,1.60
2022-12-05T19:56:09.652Z,1.66
2022-12-05T19:58:39.768Z,1.64
2022-12-05T20:01:09.362Z,1.74
2022-12-05T20:03:37.692Z,1.69
2022-12-05T20:06:07.094Z,1.57
2022-12-05T20:08:45.850Z,1.78
2022-12-05T20:11:17.162Z,1.68
2022-12-05T20:13:47.966Z,1.75
2022-12-05T20:16:18.339Z,1.81
2022-12-05T20:18:47.089Z,1.86
2022-12-05T20:21:18.174Z,1.68
2022-12-05T20:23:46.779Z,1.84
2022-12-05T20:26:17.835Z,1.86
2022-12-05T20:28:47.838Z,1.79
2022-12-05T20:31:17.947Z,1.73
2022-12-05T20:33:46.225Z,1.89
2022-12-05T20:36:16.451Z,1.64
2022-12-05T20:38:45.076Z,1.80
2022-12-05T20:41:15.510Z,1.76
2022-12-05T20:43:43.928Z,1.86
2022-12-05T20:46:16.536Z,1.64
2022-12-05T20:48:44.856Z,1.75
2022-12-05T20:51:14.669Z,1.85
2022-12-05T20:53:43.785Z,1.84
2022-12-05T20:56:13.299Z,1.83
2022-12-05T20:58:42.141Z,1.68
2022-12-05T21:01:11.962Z,1.77
2022-12-05T21:03:43.010Z,1.88
2022-12-05T21:06:13.008Z,1.82
2022-12-05T21:08:40.984Z,1.77
2022-12-05T21:11:10.032Z,1.74
2022-12-05T21:13:38.292Z,1.77
2022-12-05T21:16:08.235Z,1.90
2022-12-05T21:18:37.175Z,1.82
2022-12-05T21:21:08.397Z,1.86
2022-12-05T21:23:36.401Z,1.82
2022-12-05T21:26:07.451Z,1.76
2022-12-05T21:28:36.477Z,1.81
2022-12-05T21:31:09.860Z,1.67
2022-12-05T21:33:38.625Z,1.68
2022-12-05T21:36:10.135Z,1.74
2022-12-05T21:38:38.184Z,1.74
2022-12-05T21:41:07.114Z,1.68
2022-12-05T21:43:36.300Z,1.77
2022-12-05T21:46:05.161Z,1.90
2022-12-05T21:48:34.298Z,1.84
2022-12-05T21:51:02.615Z,1.68
2022-12-05T21:53:31.960Z,1.80
2022-12-05T21:56:00.863Z,1.84
2022-12-05T21:58:29.002Z,1.88
2022-12-05T22:00:56.900Z,1.87
2022-12-05T22:03:25.223Z,1.83
2022-12-05T22:06:01.193Z,1.91
2022-12-05T22:08:32.469Z,1.82
2022-12-05T22:11:11.234Z,1.74
2022-12-05T22:13:39.816Z,1.86
2022-12-05T22:16:08.684Z,1.55
2022-12-05T22:18:37.349Z,1.97
2022-12-05T22:21:07.758Z,1.88
2022-12-05T22:23:37.080Z,1.99
2022-12-05T22:26:06.845Z,2.05
2022-12-05T22:28:35.699Z,1.94
2022-12-05T22:31:06.985Z,1.92
2022-12-05T22:33:36.760Z,2.02
2022-12-05T22:36:06.901Z,1.90
2022-12-05T22:38:37.596Z,2.07
2022-12-05T22:41:07.772Z,2.05
2022-12-05T22:43:37.573Z,2.08
2022-12-05T22:46:07.280Z,2.04
2022-12-05T22:48:36.489Z,2.12
2022-12-05T22:51:05.330Z,2.06
2022-12-05T22:53:33.227Z,2.11
2022-12-05T22:56:08.144Z,2.08
2022-12-05T22:58:37.080Z,1.95
2022-12-05T23:01:13.163Z,1.95
2022-12-05T23:03:42.096Z,1.99
2022-12-05T23:06:12.231Z,1.98
2022-12-05T23:08:40.832Z,2.08
2022-12-05T23:11:11.348Z,2.02
2022-12-05T23:13:40.352Z,2.09
2022-12-05T23:16:09.955Z,1.98
2022-12-05T23:18:47.777Z,2.08
2022-12-05T23:21:17.805Z,2.12
2022-12-05T23:23:46.004Z,2.04
2022-12-05T23:26:15.898Z,1.98
2022-12-05T23:28:44.931Z,2.03
2022-12-05T23:31:13.523Z,2.03
2022-12-05T23:33:41.845Z,1.95
2022-12-05T23:36:11.199Z,2.07
2022-12-05T23:38:41.063Z,2.04
2022-12-05T23:41:11.704Z,2.01
2022-12-05T23:43:41.648Z,1.90
2022-12-05T23:46:10.558Z,2.08
2022-12-05T23:48:39.465Z,2.16
2022-12-05T23:51:10.022Z,2.19
2022-12-05T23:53:40.087Z,2.15
2022-12-05T23:56:10.321Z,2.11
2022-12-05T23:58:39.856Z,2.03
